Česky Dansk Deutsch English Español Suomi Français Magyar Italiano Nederlands norsk Polski Português svenska Türkçe

 

Het Weer

Alexander Bay (Zuid Afrika)

12:11, 3 april 2016 (GMT)

NWNNE
WE
SWSSE
Home            
Alexander Bay Springbok Luderitz / Diaz Point Keetmanshoop Vredendal Calvinia Upington, Up-Apt Langebaanweg Fraserburg Cape Town, Cape Town International Airport Sishen Tsabong Rooikop Saaf / Civ Walvis Bay Windhoek, Town MET J. G. Strijdom Beaufort West Gobabis Tshane De Aar Overberg De Aar Oudtshoorn

Om een weerknop op uw website of weblog te plaatsen, copieer onderstaande code en plak die in uw pagina. In het eerste vakje staat HTML-code, in het tweede vakje UBB-code.


Add to Google

Details

Wind speed:4 bf, 14 kn, 7.2 m/s, 16.1 miles/h, 25.9 km/h
Wind direction:SSW, 210°
Het Weer:moderate
moderate
moderate
Temperature:28°C, 82°F
Gefühlte Temperatur:27°C, 81°F
Dew-point:12°C, 54°F
Atmospheric pressure:1012 hPa, 759.1 mmHg, 29.88 inHg, 0.999 atm
Relative humidity:37.1 %
METAR:FAAB 031211Z AUTO 21014KT 28/12 Q1012

Snelkoppelingen

Actuele weersinformatie van de hele wereld. Voeg locaties toe met het plus (+) symbool. Deze snelkoppelingen kunnen worden toegevoegd aan Google.

Lid van de Technetium groep

website free tracking
StatCounter NetStat W3C Validator

17-12-2017 04:49:38
astro.technetium.be money.technetium.be phote.technetium.be tafeltennistafel.technetium.be www.ligfiets.net